Alma, Colorado
Current Conditions -  °F | °C
As of 9:37 AM on Wednesday 22 Oct 2014 (Local Time) from KCCU Reporting Station
Scattered Clouds Scattered Clouds  
Wind Chill: -1°   Ceiling: Unl
Heat Index:   Visibility: 10mi
Dew Point: -2°   Wind: 12mph
Humidity: 70%   Direction: 210°SSW
Pressure: 30.38"   Gusts: 18mph
Location:  39.28°N, 106.06°W
Report Text: KCCU 221537Z AUTO 21010G16KT 180V240 10SM SCT034 SCT041 03/M02 A3038 RMK AO2
Loading
Personal Weather Stations






























Interactive Weather Map
Tropical Storm Tracking
New forecast layout! Learn more

10-Day Weather Forecast

Advertisements
Track Severe Weather on mobile